createdAt,value
2022-10-31T00:01:05.577Z,58.10
2022-10-31T00:03:25.768Z,54.70
2022-10-31T00:05:44.702Z,45.10
2022-10-31T00:08:02.201Z,49.50
2022-10-31T00:10:16.554Z,53.80
2022-10-31T00:12:30.181Z,45.40
2022-10-31T00:14:43.415Z,54.50
2022-10-31T00:16:56.713Z,52.50
2022-10-31T00:19:11.046Z,45.10
2022-10-31T00:21:27.039Z,48.40
2022-10-31T00:23:40.216Z,53.60
2022-10-31T00:25:53.417Z,61.30
2022-10-31T00:28:06.805Z,54.30
2022-10-31T00:30:20.428Z,59.40
2022-10-31T00:32:35.911Z,63.80
2022-10-31T00:34:50.517Z,77.20
2022-10-31T00:37:04.668Z,45.60
2022-10-31T00:39:20.206Z,60.40
2022-10-31T00:41:34.439Z,64.30
2022-10-31T00:43:48.253Z,73.10
2022-10-31T00:46:01.612Z,61.90
2022-10-31T00:48:16.182Z,69.30
2022-10-31T00:50:30.772Z,66.70
2022-10-31T00:52:44.204Z,61.80
2022-10-31T00:54:58.553Z,66.60
2022-10-31T00:57:12.338Z,44.90
2022-10-31T00:59:26.458Z,64.50
2022-10-31T01:01:39.789Z,60.40
2022-10-31T01:03:54.270Z,74.60
2022-10-31T01:06:09.408Z,69.40
2022-10-31T01:08:23.521Z,55.50
2022-10-31T01:10:36.745Z,44.50
2022-10-31T01:12:51.831Z,69.90
2022-10-31T01:15:07.321Z,66.60
2022-10-31T01:17:22.450Z,70.30
2022-10-31T01:19:35.903Z,75.40
2022-10-31T01:21:49.232Z,59.00
2022-10-31T01:24:07.413Z,59.40
2022-10-31T01:26:27.179Z,56.70
2022-10-31T01:28:41.833Z,53.70
2022-10-31T01:30:55.881Z,61.60
2022-10-31T01:33:09.529Z,65.60
2022-10-31T01:35:22.707Z,65.90
2022-10-31T01:37:37.682Z,55.00
2022-10-31T01:39:52.427Z,57.30
2022-10-31T01:42:08.181Z,50.20
2022-10-31T01:44:57.868Z,46.10
2022-10-31T01:47:17.469Z,46.10
2022-10-31T01:49:36.044Z,33.60
2022-10-31T01:51:54.779Z,36.00
2022-10-31T01:54:10.662Z,34.70
2022-10-31T01:56:25.032Z,59.80
2022-10-31T01:58:39.996Z,36.90
2022-10-31T02:00:56.298Z,31.40
2022-10-31T02:03:09.974Z,50.00
2022-10-31T02:05:28.178Z,53.20
2022-10-31T02:07:46.417Z,58.40
2022-10-31T02:10:01.578Z,61.00
2022-10-31T02:12:18.028Z,66.20
2022-10-31T02:14:33.803Z,30.80
2022-10-31T02:16:46.993Z,46.20
2022-10-31T02:19:02.143Z,48.00
2022-10-31T02:21:24.250Z,49.80
2022-10-31T02:24:04.310Z,66.20
2022-10-31T02:26:36.597Z,45.30
2022-10-31T02:29:18.515Z,33.40
2022-10-31T02:31:41.038Z,40.40
2022-10-31T02:33:59.008Z,36.60
2022-10-31T02:36:21.285Z,34.70
2022-10-31T02:38:51.464Z,42.30
2022-10-31T02:41:21.089Z,20.20
2022-10-31T02:43:47.928Z,43.70
2022-10-31T02:46:07.468Z,34.40
2022-10-31T02:48:24.116Z,50.80
2022-10-31T02:50:42.256Z,40.20
2022-10-31T02:52:57.592Z,53.30
2022-10-31T02:55:31.853Z,45.20
2022-10-31T02:57:47.629Z,45.30
2022-10-31T03:00:05.106Z,42.20
2022-10-31T03:02:34.301Z,71.70
2022-10-31T03:05:01.446Z,78.40
2022-10-31T03:07:25.560Z,73.50
2022-10-31T03:09:47.806Z,79.50
2022-10-31T03:12:09.083Z,73.10
2022-10-31T03:14:29.969Z,86.70
2022-10-31T03:16:52.127Z,64.90
2022-10-31T03:19:09.963Z,83.00
2022-10-31T03:21:29.160Z,70.30
2022-10-31T03:23:45.024Z,44.30
2022-10-31T03:26:09.759Z,71.20
2022-10-31T03:28:27.196Z,63.60
2022-10-31T03:30:42.780Z,76.90
2022-10-31T03:33:00.888Z,37.30
2022-10-31T03:35:18.823Z,66.60
2022-10-31T03:37:35.320Z,51.60
2022-10-31T03:39:52.290Z,43.60
2022-10-31T03:42:13.962Z,49.40
2022-10-31T03:44:32.134Z,62.20
2022-10-31T03:46:48.761Z,37.80
2022-10-31T03:49:03.064Z,22.60
2022-10-31T03:51:21.945Z,32.10
2022-10-31T03:53:41.513Z,31.30
2022-10-31T03:56:02.281Z,30.90
2022-10-31T03:58:23.576Z,46.00
2022-10-31T04:00:38.549Z,73.70
2022-10-31T04:02:56.738Z,53.00
2022-10-31T04:05:12.824Z,51.50
2022-10-31T04:07:29.989Z,39.80
2022-10-31T04:09:46.975Z,52.90
2022-10-31T04:12:04.812Z,51.00
2022-10-31T04:14:42.828Z,61.00
2022-10-31T04:16:57.468Z,52.90
2022-10-31T04:19:18.074Z,57.10
2022-10-31T04:21:36.478Z,70.40
2022-10-31T04:23:50.536Z,62.10
2022-10-31T04:26:07.859Z,34.80
2022-10-31T04:28:22.917Z,46.50
2022-10-31T04:30:36.527Z,72.10
2022-10-31T04:32:50.594Z,48.50
2022-10-31T04:35:05.282Z,77.20
2022-10-31T04:37:19.150Z,76.70
2022-10-31T04:39:35.336Z,39.40
2022-10-31T04:42:28.669Z,42.40
2022-10-31T04:44:45.468Z,58.80
2022-10-31T04:46:58.662Z,55.00
2022-10-31T04:49:11.904Z,46.90
2022-10-31T04:51:25.231Z,64.90
2022-10-31T04:53:38.553Z,51.10
2022-10-31T04:56:11.112Z,63.90
2022-10-31T04:58:29.325Z,58.30
2022-10-31T05:00:42.536Z,48.40
2022-10-31T05:02:56.857Z,43.00
2022-10-31T05:05:13.218Z,59.30
2022-10-31T05:07:26.879Z,45.60
2022-10-31T05:09:40.844Z,46.60
2022-10-31T05:11:54.087Z,71.10
2022-10-31T05:14:26.568Z,58.60
2022-10-31T05:19:29.326Z,68.10
2022-10-31T05:22:03.009Z,65.50
2022-10-31T05:24:19.204Z,70.10
2022-10-31T05:26:33.439Z,76.00
2022-10-31T05:28:46.881Z,107.60
2022-10-31T05:31:01.127Z,81.30
2022-10-31T05:33:15.232Z,58.80
2022-10-31T05:36:00.779Z,42.20
2022-10-31T05:38:28.214Z,58.60
2022-10-31T05:40:43.303Z,73.20
2022-10-31T05:42:59.038Z,41.60
2022-10-31T05:45:15.611Z,75.50
2022-10-31T05:47:39.169Z,57.30
2022-10-31T05:50:14.196Z,67.00
2022-10-31T05:52:44.908Z,56.30
2022-10-31T05:55:15.652Z,47.60
2022-10-31T05:57:39.396Z,65.80
2022-10-31T05:59:55.296Z,84.90
2022-10-31T06:02:09.470Z,66.80
2022-10-31T06:04:58.029Z,101.30
2022-10-31T06:07:12.548Z,72.70
2022-10-31T06:09:25.871Z,70.20
2022-10-31T06:11:39.285Z,98.50
2022-10-31T06:13:52.623Z,65.30
2022-10-31T06:16:10.028Z,70.10
2022-10-31T06:18:23.427Z,60.10
2022-10-31T06:20:38.946Z,114.10
2022-10-31T06:22:52.177Z,102.50
2022-10-31T06:25:05.468Z,60.10
2022-10-31T06:27:25.333Z,51.40
2022-10-31T06:29:41.247Z,58.60
2022-10-31T06:32:00.087Z,52.80
2022-10-31T06:34:15.009Z,73.40
2022-10-31T06:36:28.716Z,73.00
2022-10-31T06:38:42.661Z,63.90
2022-10-31T06:40:56.554Z,75.00
2022-10-31T06:43:13.415Z,87.50
2022-10-31T06:45:27.860Z,74.80
2022-10-31T06:48:17.772Z,70.80
2022-10-31T06:50:50.001Z,82.70
2022-10-31T06:53:04.103Z,94.90
2022-10-31T06:55:20.399Z,76.40
2022-10-31T06:57:33.568Z,66.80
2022-10-31T06:59:46.918Z,61.60
2022-10-31T07:02:04.895Z,87.80
2022-10-31T07:04:19.693Z,77.00
2022-10-31T07:06:34.410Z,91.40
2022-10-31T07:08:48.696Z,76.80
2022-10-31T07:11:02.761Z,56.50
2022-10-31T07:13:20.284Z,60.80
2022-10-31T07:15:41.101Z,106.70
2022-10-31T07:17:54.794Z,70.80
2022-10-31T07:20:09.149Z,53.50
2022-10-31T07:22:23.327Z,89.40
2022-10-31T07:24:36.722Z,79.80
2022-10-31T07:27:15.863Z,69.60
2022-10-31T07:29:30.845Z,42.30
2022-10-31T07:31:44.105Z,56.70
2022-10-31T07:34:02.177Z,42.10
2022-10-31T07:36:16.914Z,72.50
2022-10-31T07:38:31.280Z,94.40
2022-10-31T07:40:53.869Z,61.10
2022-10-31T07:43:11.502Z,76.90
2022-10-31T07:45:47.310Z,60.20
2022-10-31T07:48:35.606Z,99.60
2022-10-31T07:51:13.615Z,102.40
2022-10-31T07:53:45.766Z,82.30
2022-10-31T07:56:10.074Z,71.30
2022-10-31T07:58:24.941Z,84.80
2022-10-31T08:00:39.371Z,56.10
2022-10-31T08:02:52.727Z,56.80
2022-10-31T08:05:26.744Z,59.00
2022-10-31T08:08:00.139Z,43.60
2022-10-31T08:10:14.343Z,45.70
2022-10-31T08:12:29.224Z,50.10
2022-10-31T08:14:42.647Z,91.00
2022-10-31T08:16:56.817Z,50.10
2022-10-31T08:19:17.044Z,66.50
2022-10-31T08:21:30.258Z,65.10
2022-10-31T08:23:45.272Z,87.60
2022-10-31T08:26:01.787Z,59.80
2022-10-31T08:28:17.775Z,80.00
2022-10-31T08:30:36.905Z,121.60
2022-10-31T08:33:26.114Z,95.20
2022-10-31T08:35:57.728Z,82.60
2022-10-31T08:38:41.338Z,80.40
2022-10-31T08:40:57.565Z,101.00
2022-10-31T08:43:15.865Z,93.60
2022-10-31T08:45:29.696Z,122.60
2022-10-31T08:47:43.969Z,71.60
2022-10-31T08:49:57.231Z,74.60
2022-10-31T08:52:14.297Z,74.70
2022-10-31T08:54:32.857Z,82.90
2022-10-31T08:57:06.339Z,66.40
2022-10-31T08:59:27.940Z,89.90
2022-10-31T09:01:59.618Z,85.70
2022-10-31T09:04:14.474Z,73.00
2022-10-31T09:06:28.253Z,68.40
2022-10-31T09:08:43.895Z,92.40
2022-10-31T09:11:00.390Z,93.20
2022-10-31T09:13:36.420Z,111.20
2022-10-31T09:16:19.860Z,69.40
2022-10-31T09:18:34.114Z,73.20
2022-10-31T09:20:49.837Z,98.60
2022-10-31T09:23:08.165Z,71.00
2022-10-31T09:25:23.776Z,94.90
2022-10-31T09:27:44.802Z,103.00
2022-10-31T09:29:58.206Z,98.30
2022-10-31T09:32:11.707Z,57.30
2022-10-31T09:34:31.316Z,82.80
2022-10-31T09:37:00.590Z,81.60
2022-10-31T09:39:14.020Z,72.80
2022-10-31T09:41:33.692Z,80.70
2022-10-31T09:43:54.699Z,45.70
2022-10-31T09:46:15.373Z,83.10
2022-10-31T09:48:55.148Z,38.30
2022-10-31T09:51:21.089Z,14.10
2022-10-31T09:54:00.154Z,48.90
2022-10-31T09:56:17.611Z,113.00
2022-10-31T09:58:36.747Z,115.20
2022-10-31T10:00:52.731Z,94.70
2022-10-31T10:03:15.839Z,150.10
2022-10-31T10:05:38.867Z,82.70
2022-10-31T10:07:59.695Z,41.40
2022-10-31T10:10:43.442Z,41.90
2022-10-31T10:13:36.996Z,35.60
2022-10-31T10:16:10.582Z,34.60
2022-10-31T10:18:32.880Z,29.80
2022-10-31T10:20:53.528Z,31.60
2022-10-31T10:23:25.755Z,48.00
2022-10-31T10:25:43.657Z,64.50
2022-10-31T10:28:08.052Z,73.30
2022-10-31T10:30:23.352Z,94.40
2022-10-31T10:32:49.349Z,95.80
2022-10-31T10:35:15.441Z,121.50
2022-10-31T10:37:38.511Z,119.10
2022-10-31T10:39:54.245Z,107.00
2022-10-31T10:42:29.911Z,86.40
2022-10-31T10:45:04.736Z,107.60
2022-10-31T10:47:34.735Z,102.50
2022-10-31T10:49:54.424Z,102.40
2022-10-31T10:54:59.002Z,71.60
2022-10-31T10:57:24.838Z,98.10
2022-10-31T10:59:39.735Z,123.60
2022-10-31T11:01:54.422Z,140.00
2022-10-31T11:04:16.109Z,162.40
2022-10-31T11:06:30.253Z,158.10
2022-10-31T11:08:43.490Z,145.20
2022-10-31T11:11:06.885Z,87.40
2022-10-31T11:13:28.791Z,103.90
2022-10-31T11:15:54.233Z,69.70
2022-10-31T11:18:07.579Z,59.70
2022-10-31T11:20:36.745Z,56.70
2022-10-31T11:22:50.953Z,40.90
2022-10-31T11:25:04.180Z,33.00
2022-10-31T11:27:24.708Z,27.40
2022-10-31T11:29:38.843Z,22.60
2022-10-31T11:31:55.070Z,23.10
2022-10-31T11:34:11.768Z,25.30
2022-10-31T11:36:28.773Z,98.20
2022-10-31T11:38:47.939Z,47.50
2022-10-31T11:41:08.293Z,23.60
2022-10-31T11:43:23.697Z,20.60
2022-10-31T11:45:40.279Z,23.00
2022-10-31T11:47:59.926Z,18.40
2022-10-31T11:50:23.848Z,17.70
2022-10-31T11:52:39.738Z,56.60
2022-10-31T11:54:58.510Z,66.20
2022-10-31T11:57:26.087Z,79.10
2022-10-31T11:59:39.489Z,101.40
2022-10-31T12:01:56.954Z,108.70
2022-10-31T12:04:16.579Z,123.70
2022-10-31T12:06:36.859Z,92.80
2022-10-31T12:08:50.977Z,78.70
2022-10-31T12:11:12.505Z,70.90
2022-10-31T12:13:37.842Z,63.50
2022-10-31T12:15:57.981Z,43.20
2022-10-31T12:18:29.480Z,41.10
2022-10-31T12:20:57.387Z,62.70
2022-10-31T12:23:20.198Z,95.90
2022-10-31T12:25:44.329Z,107.20
2022-10-31T12:28:09.602Z,132.70
2022-10-31T12:30:28.718Z,231.70
2022-10-31T12:32:57.386Z,271.10
2022-10-31T12:35:35.492Z,289.60
2022-10-31T12:38:02.703Z,272.60
2022-10-31T12:40:45.677Z,300.70
2022-10-31T12:43:11.828Z,302.80
2022-10-31T12:45:52.880Z,282.90
2022-10-31T12:48:24.577Z,268.20
2022-10-31T12:50:53.098Z,253.70
2022-10-31T12:55:52.938Z,291.20
2022-10-31T12:58:13.466Z,309.00
2022-10-31T13:00:30.394Z,297.40
2022-10-31T13:02:50.655Z,283.10
2022-10-31T13:05:07.166Z,240.20
2022-10-31T13:07:26.452Z,253.40
2022-10-31T13:09:43.369Z,216.80
2022-10-31T13:12:01.505Z,191.80
2022-10-31T13:14:20.363Z,153.50
2022-10-31T13:16:39.157Z,131.30
2022-10-31T13:18:59.326Z,132.40
2022-10-31T13:21:18.542Z,148.10
2022-10-31T13:23:50.489Z,137.20
2022-10-31T13:26:08.142Z,147.40
2022-10-31T13:28:33.756Z,147.60
2022-10-31T13:30:47.961Z,149.30
2022-10-31T13:33:05.216Z,151.80
2022-10-31T13:35:24.795Z,138.60
2022-10-31T13:37:42.624Z,94.80
2022-10-31T13:40:23.718Z,76.40
2022-10-31T13:42:51.818Z,89.60
2022-10-31T13:45:18.798Z,75.60
2022-10-31T13:47:33.953Z,65.70
2022-10-31T13:49:47.416Z,44.70
2022-10-31T13:52:09.340Z,48.60
2022-10-31T13:54:37.688Z,66.70
2022-10-31T13:56:56.761Z,59.40
2022-10-31T13:59:25.365Z,66.30
2022-10-31T14:01:39.413Z,54.80
2022-10-31T14:04:12.298Z,37.90
2022-10-31T14:06:39.337Z,86.90
2022-10-31T14:08:56.247Z,67.60
2022-10-31T14:11:12.258Z,74.10
2022-10-31T14:13:30.763Z,77.70
2022-10-31T14:15:56.684Z,119.80
2022-10-31T14:18:24.684Z,136.80
2022-10-31T14:20:48.111Z,118.70
2022-10-31T14:23:02.457Z,150.10
2022-10-31T14:25:35.687Z,115.30
2022-10-31T14:27:55.778Z,97.20
2022-10-31T14:30:26.708Z,79.40
2022-10-31T14:32:40.917Z,100.60
2022-10-31T14:35:01.722Z,115.70
2022-10-31T14:37:36.346Z,96.30
2022-10-31T14:40:02.659Z,66.60
2022-10-31T14:42:34.887Z,72.70
2022-10-31T14:45:21.817Z,133.60
2022-10-31T14:47:49.248Z,95.40
2022-10-31T14:50:37.599Z,103.80
2022-10-31T14:52:56.897Z,105.70
2022-10-31T14:55:16.597Z,76.70
2022-10-31T14:57:34.081Z,115.20
2022-10-31T14:59:51.622Z,134.00
2022-10-31T15:02:13.817Z,92.20
2022-10-31T15:04:29.869Z,137.40
2022-10-31T15:06:50.324Z,133.40
2022-10-31T15:09:03.455Z,112.80
2022-10-31T15:11:20.979Z,151.10
2022-10-31T15:13:35.222Z,171.10
2022-10-31T15:15:52.324Z,175.20
2022-10-31T15:18:08.777Z,145.30
2022-10-31T15:20:25.906Z,166.10
2022-10-31T15:22:39.258Z,174.50
2022-10-31T15:24:58.264Z,171.10
2022-10-31T15:27:18.297Z,127.40
2022-10-31T15:29:33.814Z,130.10
2022-10-31T15:31:56.842Z,138.80
2022-10-31T15:34:26.674Z,108.10
2022-10-31T15:36:41.056Z,133.40
2022-10-31T15:38:54.637Z,81.80
2022-10-31T15:41:11.342Z,123.60
2022-10-31T15:43:25.189Z,69.70
2022-10-31T15:45:39.280Z,74.30
2022-10-31T15:47:59.134Z,53.10
2022-10-31T15:50:27.247Z,68.60
2022-10-31T15:52:48.016Z,78.10
2022-10-31T15:55:05.759Z,25.60
2022-10-31T15:57:20.112Z,143.50
2022-10-31T15:59:36.118Z,131.80
2022-10-31T16:02:02.620Z,121.10
2022-10-31T16:04:29.478Z,139.00
2022-10-31T16:06:43.674Z,200.10
2022-10-31T16:08:57.865Z,173.80
2022-10-31T16:11:27.184Z,169.00
2022-10-31T16:13:42.665Z,179.50
2022-10-31T16:16:21.616Z,169.00
2022-10-31T16:18:39.442Z,135.70
2022-10-31T16:20:57.987Z,162.80
2022-10-31T16:23:19.919Z,230.70
2022-10-31T16:25:39.220Z,220.20
2022-10-31T16:27:59.186Z,251.80
2022-10-31T16:30:43.961Z,265.00
2022-10-31T16:33:03.485Z,261.90
2022-10-31T16:35:32.389Z,222.10
2022-10-31T16:37:47.319Z,217.30
2022-10-31T16:40:00.718Z,247.70
2022-10-31T16:42:15.745Z,252.40
2022-10-31T16:44:30.240Z,242.90
2022-10-31T16:46:44.174Z,207.50
2022-10-31T16:48:58.330Z,213.80
2022-10-31T16:51:13.255Z,183.20
2022-10-31T16:53:28.428Z,204.20
2022-10-31T16:55:46.635Z,182.60
2022-10-31T16:58:02.540Z,159.00
2022-10-31T17:00:21.464Z,166.00
2022-10-31T17:02:35.233Z,188.20
2022-10-31T17:04:50.905Z,149.00
2022-10-31T17:07:07.207Z,155.10
2022-10-31T17:09:22.016Z,161.40
2022-10-31T17:11:36.354Z,188.90
2022-10-31T17:13:49.573Z,204.10
2022-10-31T17:16:05.307Z,210.50
2022-10-31T17:18:22.909Z,176.60
2022-10-31T17:20:42.124Z,189.60
2022-10-31T17:22:55.382Z,211.10
2022-10-31T17:25:08.952Z,173.30
2022-10-31T17:27:21.993Z,178.40
2022-10-31T17:29:37.032Z,183.60
2022-10-31T17:31:50.621Z,170.50
2022-10-31T17:34:05.055Z,175.30
2022-10-31T17:36:18.199Z,199.60
2022-10-31T17:38:31.282Z,176.30
2022-10-31T17:40:45.344Z,187.40
2022-10-31T17:43:00.991Z,256.80
2022-10-31T17:45:16.760Z,244.10
2022-10-31T17:47:30.080Z,213.40
2022-10-31T17:49:43.307Z,273.90
2022-10-31T17:51:56.917Z,258.00
2022-10-31T17:54:10.940Z,270.80
2022-10-31T17:56:25.134Z,246.20
2022-10-31T17:58:38.802Z,206.10
2022-10-31T18:00:52.592Z,204.00
2022-10-31T18:03:07.206Z,191.60
2022-10-31T18:05:20.921Z,153.20
2022-10-31T18:07:34.180Z,248.30
2022-10-31T18:09:47.320Z,204.50
2022-10-31T18:12:00.526Z,143.30
2022-10-31T18:14:15.297Z,143.50
2022-10-31T18:16:29.865Z,85.80
2022-10-31T18:18:44.333Z,255.40
2022-10-31T18:21:00.179Z,248.70
2022-10-31T18:23:13.455Z,362.50
2022-10-31T18:25:26.771Z,399.80
2022-10-31T18:27:39.986Z,417.90
2022-10-31T18:29:54.171Z,421.70
2022-10-31T18:32:09.529Z,437.00
2022-10-31T18:34:23.431Z,388.20
2022-10-31T18:36:37.091Z,398.00
2022-10-31T18:38:50.332Z,361.60
2022-10-31T18:41:03.602Z,367.20
2022-10-31T18:43:16.881Z,342.30
2022-10-31T18:45:45.386Z,327.70
2022-10-31T18:48:00.801Z,342.40
2022-10-31T18:50:14.858Z,317.90
2022-10-31T18:52:28.063Z,343.00
2022-10-31T18:54:41.268Z,292.80
2022-10-31T18:56:55.766Z,285.00
2022-10-31T18:59:09.554Z,245.10
2022-10-31T19:01:23.745Z,238.00
2022-10-31T19:03:36.908Z,225.70
2022-10-31T19:05:51.071Z,268.90
2022-10-31T19:08:04.622Z,241.60
2022-10-31T19:10:17.923Z,252.70
2022-10-31T19:12:32.120Z,244.40
2022-10-31T19:14:45.207Z,220.50
2022-10-31T19:17:02.186Z,243.60
2022-10-31T19:19:15.823Z,224.80
2022-10-31T19:21:29.492Z,194.10
2022-10-31T19:23:44.024Z,211.20
2022-10-31T19:26:01.320Z,191.30
2022-10-31T19:28:14.674Z,205.50
2022-10-31T19:30:27.849Z,227.10
2022-10-31T19:32:41.579Z,209.10
2022-10-31T19:34:55.256Z,221.20
2022-10-31T19:37:08.545Z,211.00
2022-10-31T19:39:22.580Z,226.10
2022-10-31T19:41:36.839Z,232.10
2022-10-31T19:43:50.259Z,231.80
2022-10-31T19:46:06.941Z,228.10
2022-10-31T19:48:20.083Z,244.10
2022-10-31T19:50:33.273Z,185.50
2022-10-31T19:52:46.557Z,186.10
2022-10-31T19:54:59.952Z,190.00
2022-10-31T19:57:13.193Z,177.50
2022-10-31T19:59:27.496Z,186.70
2022-10-31T20:01:41.733Z,189.60
2022-10-31T20:03:55.411Z,233.40
2022-10-31T20:06:11.503Z,216.10
2022-10-31T20:08:25.239Z,178.70
2022-10-31T20:10:39.428Z,152.10
2022-10-31T20:12:53.496Z,165.90
2022-10-31T20:15:06.696Z,141.00
2022-10-31T20:17:19.907Z,190.80
2022-10-31T20:19:34.627Z,202.70
2022-10-31T20:21:48.031Z,213.70
2022-10-31T20:24:04.203Z,229.00
2022-10-31T20:26:19.732Z,284.00
2022-10-31T20:28:33.328Z,229.50
2022-10-31T20:30:46.968Z,238.60
2022-10-31T20:33:00.207Z,270.50
2022-10-31T20:35:14.360Z,248.80
2022-10-31T20:37:27.576Z,247.20
2022-10-31T20:39:40.691Z,239.20
2022-10-31T20:41:54.296Z,223.30
2022-10-31T20:44:08.679Z,292.80
2022-10-31T20:46:24.590Z,283.10
2022-10-31T20:48:37.986Z,280.60
2022-10-31T20:50:51.637Z,266.90
2022-10-31T20:53:04.959Z,228.80
2022-10-31T20:55:18.536Z,241.70
2022-10-31T20:57:32.081Z,231.60
2022-10-31T20:59:45.302Z,290.10
2022-10-31T21:01:58.661Z,263.60
2022-10-31T21:04:13.386Z,241.50
2022-10-31T21:06:27.388Z,188.60
2022-10-31T21:08:41.782Z,151.70
2022-10-31T21:10:55.415Z,177.60
2022-10-31T21:13:08.967Z,183.80
2022-10-31T21:15:22.276Z,178.00
2022-10-31T21:17:36.148Z,211.80
2022-10-31T21:19:49.610Z,188.10
2022-10-31T21:22:04.068Z,161.00
2022-10-31T21:24:21.817Z,180.90
2022-10-31T21:26:37.518Z,216.50
2022-10-31T21:28:51.432Z,194.60
2022-10-31T21:31:09.024Z,189.50
2022-10-31T21:33:22.322Z,210.70
2022-10-31T21:35:35.750Z,214.60
2022-10-31T21:37:48.956Z,198.70
2022-10-31T21:40:02.367Z,204.10
2022-10-31T21:42:17.550Z,158.50
2022-10-31T21:44:33.941Z,191.50
2022-10-31T21:46:49.245Z,193.70
2022-10-31T21:49:04.931Z,188.30
2022-10-31T21:51:19.828Z,113.80
2022-10-31T21:53:49.269Z,104.50
2022-10-31T21:56:06.380Z,37.80
2022-10-31T21:58:19.601Z,70.80
2022-10-31T22:00:32.800Z,69.90
2022-10-31T22:02:47.154Z,84.10
2022-10-31T22:05:01.218Z,95.40
2022-10-31T22:07:14.785Z,61.50
2022-10-31T22:09:28.521Z,93.80
2022-10-31T22:11:41.952Z,64.10
2022-10-31T22:13:55.781Z,87.20
2022-10-31T22:16:11.337Z,60.10
2022-10-31T22:18:27.074Z,43.30
2022-10-31T22:20:41.331Z,48.60
2022-10-31T22:22:56.021Z,83.80
2022-10-31T22:25:09.570Z,41.70
2022-10-31T22:27:23.070Z,68.40
2022-10-31T22:29:38.711Z,81.40
2022-10-31T22:31:58.552Z,82.50
2022-10-31T22:34:13.404Z,70.60
2022-10-31T22:36:28.425Z,109.30
2022-10-31T22:38:43.536Z,106.30
2022-10-31T22:41:00.425Z,94.00
2022-10-31T22:43:13.959Z,98.30
2022-10-31T22:45:28.045Z,87.50
2022-10-31T22:47:43.419Z,100.50
2022-10-31T22:49:59.963Z,44.70
2022-10-31T22:52:15.208Z,51.60
2022-10-31T22:54:29.505Z,47.10
2022-10-31T22:56:42.973Z,31.50
2022-10-31T22:58:57.312Z,23.20
2022-10-31T23:01:16.636Z,20.80
2022-10-31T23:03:31.257Z,16.20
2022-10-31T23:05:44.553Z,14.50
2022-10-31T23:07:57.842Z,9.60
2022-10-31T23:10:12.849Z,9.90
2022-10-31T23:12:42.516Z,21.80
2022-10-31T23:14:55.653Z,18.00
2022-10-31T23:17:08.847Z,10.70
2022-10-31T23:19:26.019Z,16.00
2022-10-31T23:22:01.013Z,15.50
2022-10-31T23:24:16.830Z,41.60
2022-10-31T23:26:46.237Z,86.80
2022-10-31T23:29:00.412Z,90.20
2022-10-31T23:31:13.669Z,83.30
2022-10-31T23:33:31.315Z,55.40
2022-10-31T23:35:46.774Z,45.50
2022-10-31T23:38:02.045Z,31.60
2022-10-31T23:40:16.549Z,51.40
2022-10-31T23:42:31.235Z,46.20
2022-10-31T23:44:45.499Z,40.50
2022-10-31T23:46:58.876Z,24.00
2022-10-31T23:49:13.550Z,25.30
2022-10-31T23:51:27.224Z,23.60
2022-10-31T23:53:40.382Z,15.80
2022-10-31T23:55:53.584Z,13.00
2022-10-31T23:58:07.744Z,14.80
